sensor_id;sensor_type;location;lat;lon;timestamp;P1;durP1;ratioP1;P2;durP2;ratioP2
84311;SDS011;74490;52.148;7.940;2024-03-06T00:02:22;10.00;;;6.65;;
84311;SDS011;74490;52.148;7.940;2024-03-06T00:04:47;7.10;;;5.85;;
84311;SDS011;74490;52.148;7.940;2024-03-06T00:07:12;7.45;;;5.75;;
84311;SDS011;74490;52.148;7.940;2024-03-06T00:09:37;7.18;;;6.07;;
84311;SDS011;74490;52.148;7.940;2024-03-06T00:12:03;7.13;;;5.47;;
84311;SDS011;74490;52.148;7.940;2024-03-06T00:14:28;7.22;;;5.60;;
84311;SDS011;74490;52.148;7.940;2024-03-06T00:16:53;11.45;;;5.53;;
84311;SDS011;74490;52.148;7.940;2024-03-06T00:19:20;7.57;;;5.90;;
84311;SDS011;74490;52.148;7.940;2024-03-06T00:21:46;7.57;;;5.55;;
84311;SDS011;74490;52.148;7.940;2024-03-06T00:24:12;6.65;;;5.63;;
84311;SDS011;74490;52.148;7.940;2024-03-06T00:26:39;6.93;;;5.90;;
84311;SDS011;74490;52.148;7.940;2024-03-06T00:29:04;6.75;;;5.55;;
84311;SDS011;74490;52.148;7.940;2024-03-06T00:31:30;8.05;;;6.20;;
84311;SDS011;74490;52.148;7.940;2024-03-06T00:33:55;7.55;;;5.65;;
84311;SDS011;74490;52.148;7.940;2024-03-06T00:36:20;6.60;;;5.55;;
84311;SDS011;74490;52.148;7.940;2024-03-06T00:38:47;8.73;;;5.43;;
84311;SDS011;74490;52.148;7.940;2024-03-06T00:41:12;5.63;;;4.85;;
84311;SDS011;74490;52.148;7.940;2024-03-06T00:43:38;6.88;;;5.40;;
84311;SDS011;74490;52.148;7.940;2024-03-06T00:46:03;6.47;;;5.78;;
84311;SDS011;74490;52.148;7.940;2024-03-06T00:48:28;6.00;;;5.18;;
84311;SDS011;74490;52.148;7.940;2024-03-06T00:50:53;7.07;;;5.20;;
84311;SDS011;74490;52.148;7.940;2024-03-06T00:53:19;7.13;;;5.50;;
84311;SDS011;74490;52.148;7.940;2024-03-06T00:55:44;5.93;;;5.07;;
84311;SDS011;74490;52.148;7.940;2024-03-06T00:58:09;6.35;;;5.00;;
84311;SDS011;74490;52.148;7.940;2024-03-06T01:00:34;9.27;;;5.33;;
84311;SDS011;74490;52.148;7.940;2024-03-06T01:03:00;7.25;;;5.68;;
84311;SDS011;74490;52.148;7.940;2024-03-06T01:05:25;6.40;;;5.28;;
84311;SDS011;74490;52.148;7.940;2024-03-06T01:07:50;7.43;;;5.60;;
84311;SDS011;74490;52.148;7.940;2024-03-06T01:10:15;6.28;;;5.00;;
84311;SDS011;74490;52.148;7.940;2024-03-06T01:12:41;7.05;;;5.70;;
84311;SDS011;74490;52.148;7.940;2024-03-06T01:15:09;6.35;;;4.82;;
84311;SDS011;74490;52.148;7.940;2024-03-06T01:17:34;5.88;;;4.97;;
84311;SDS011;74490;52.148;7.940;2024-03-06T01:19:59;7.95;;;5.32;;
84311;SDS011;74490;52.148;7.940;2024-03-06T01:22:25;6.80;;;5.38;;
84311;SDS011;74490;52.148;7.940;2024-03-06T01:24:50;9.43;;;5.18;;
84311;SDS011;74490;52.148;7.940;2024-03-06T01:27:16;5.78;;;4.85;;
84311;SDS011;74490;52.148;7.940;2024-03-06T01:29:41;6.53;;;5.30;;
84311;SDS011;74490;52.148;7.940;2024-03-06T01:32:06;6.57;;;4.60;;
84311;SDS011;74490;52.148;7.940;2024-03-06T01:34:31;6.03;;;4.72;;
84311;SDS011;74490;52.148;7.940;2024-03-06T01:36:57;5.47;;;4.77;;
84311;SDS011;74490;52.148;7.940;2024-03-06T01:39:22;6.43;;;4.70;;
84311;SDS011;74490;52.148;7.940;2024-03-06T01:41:47;5.35;;;4.85;;
84311;SDS011;74490;52.148;7.940;2024-03-06T01:44:16;6.25;;;5.13;;
84311;SDS011;74490;52.148;7.940;2024-03-06T01:46:42;5.95;;;4.50;;
84311;SDS011;74490;52.148;7.940;2024-03-06T01:49:08;7.07;;;4.88;;
84311;SDS011;74490;52.148;7.940;2024-03-06T01:51:33;6.15;;;4.80;;
84311;SDS011;74490;52.148;7.940;2024-03-06T01:53:59;6.45;;;4.60;;
84311;SDS011;74490;52.148;7.940;2024-03-06T01:56:25;5.63;;;4.57;;
84311;SDS011;74490;52.148;7.940;2024-03-06T01:58:51;5.38;;;4.43;;
84311;SDS011;74490;52.148;7.940;2024-03-06T02:01:17;6.88;;;4.57;;
84311;SDS011;74490;52.148;7.940;2024-03-06T02:03:43;5.60;;;4.45;;
84311;SDS011;74490;52.148;7.940;2024-03-06T02:06:08;6.60;;;4.93;;
84311;SDS011;74490;52.148;7.940;2024-03-06T02:08:34;5.60;;;4.35;;
84311;SDS011;74490;52.148;7.940;2024-03-06T02:11:00;5.07;;;4.13;;
84311;SDS011;74490;52.148;7.940;2024-03-06T02:13:27;5.32;;;4.30;;
84311;SDS011;74490;52.148;7.940;2024-03-06T02:15:52;5.60;;;4.10;;
84311;SDS011;74490;52.148;7.940;2024-03-06T02:18:17;5.22;;;4.38;;
84311;SDS011;74490;52.148;7.940;2024-03-06T02:20:42;7.18;;;4.50;;
84311;SDS011;74490;52.148;7.940;2024-03-06T02:23:08;5.00;;;4.07;;
84311;SDS011;74490;52.148;7.940;2024-03-06T02:25:33;5.00;;;4.17;;
84311;SDS011;74490;52.148;7.940;2024-03-06T02:27:58;5.75;;;4.40;;
84311;SDS011;74490;52.148;7.940;2024-03-06T02:30:24;4.85;;;3.90;;
84311;SDS011;74490;52.148;7.940;2024-03-06T02:32:49;4.75;;;3.92;;
84311;SDS011;74490;52.148;7.940;2024-03-06T02:35:14;5.03;;;3.90;;
84311;SDS011;74490;52.148;7.940;2024-03-06T02:37:41;5.73;;;4.07;;
84311;SDS011;74490;52.148;7.940;2024-03-06T02:40:06;5.05;;;3.83;;
84311;SDS011;74490;52.148;7.940;2024-03-06T02:42:32;5.95;;;4.50;;
84311;SDS011;74490;52.148;7.940;2024-03-06T02:44:57;5.05;;;4.30;;
84311;SDS011;74490;52.148;7.940;2024-03-06T02:47:22;4.50;;;4.07;;
84311;SDS011;74490;52.148;7.940;2024-03-06T02:49:47;4.95;;;3.78;;
84311;SDS011;74490;52.148;7.940;2024-03-06T02:52:12;4.73;;;3.73;;
84311;SDS011;74490;52.148;7.940;2024-03-06T02:54:40;5.72;;;4.28;;
84311;SDS011;74490;52.148;7.940;2024-03-06T02:57:05;4.95;;;4.07;;
84311;SDS011;74490;52.148;7.940;2024-03-06T02:59:32;5.97;;;3.97;;
84311;SDS011;74490;52.148;7.940;2024-03-06T03:01:57;5.47;;;4.33;;
84311;SDS011;74490;52.148;7.940;2024-03-06T03:04:22;5.78;;;4.25;;
84311;SDS011;74490;52.148;7.940;2024-03-06T03:06:47;4.97;;;4.03;;
84311;SDS011;74490;52.148;7.940;2024-03-06T03:09:13;5.03;;;3.80;;
84311;SDS011;74490;52.148;7.940;2024-03-06T03:11:38;4.68;;;3.80;;
84311;SDS011;74490;52.148;7.940;2024-03-06T03:14:03;6.28;;;4.40;;
84311;SDS011;74490;52.148;7.940;2024-03-06T03:16:29;5.00;;;3.60;;
84311;SDS011;74490;52.148;7.940;2024-03-06T03:18:55;4.90;;;4.30;;
84311;SDS011;74490;52.148;7.940;2024-03-06T03:21:20;4.50;;;3.88;;
84311;SDS011;74490;52.148;7.940;2024-03-06T03:23:46;5.28;;;3.83;;
84311;SDS011;74490;52.148;7.940;2024-03-06T03:26:11;4.53;;;3.97;;
84311;SDS011;74490;52.148;7.940;2024-03-06T03:28:40;4.72;;;4.10;;
84311;SDS011;74490;52.148;7.940;2024-03-06T03:31:08;5.05;;;4.05;;
84311;SDS011;74490;52.148;7.940;2024-03-06T03:33:34;5.72;;;3.85;;
84311;SDS011;74490;52.148;7.940;2024-03-06T03:35:59;5.10;;;4.00;;
84311;SDS011;74490;52.148;7.940;2024-03-06T03:38:24;5.28;;;4.35;;
84311;SDS011;74490;52.148;7.940;2024-03-06T03:40:50;4.43;;;3.70;;
84311;SDS011;74490;52.148;7.940;2024-03-06T03:43:15;4.95;;;3.90;;
84311;SDS011;74490;52.148;7.940;2024-03-06T03:45:41;6.55;;;3.75;;
84311;SDS011;74490;52.148;7.940;2024-03-06T03:48:06;5.40;;;4.40;;
84311;SDS011;74490;52.148;7.940;2024-03-06T03:50:31;6.53;;;4.28;;
84311;SDS011;74490;52.148;7.940;2024-03-06T03:52:57;5.75;;;4.00;;
84311;SDS011;74490;52.148;7.940;2024-03-06T03:55:23;5.78;;;3.83;;
84311;SDS011;74490;52.148;7.940;2024-03-06T03:57:48;6.97;;;4.47;;
84311;SDS011;74490;52.148;7.940;2024-03-06T04:00:14;4.47;;;3.63;;
84311;SDS011;74490;52.148;7.940;2024-03-06T04:02:39;5.45;;;4.05;;
84311;SDS011;74490;52.148;7.940;2024-03-06T04:05:04;5.22;;;4.38;;
84311;SDS011;74490;52.148;7.940;2024-03-06T04:07:30;6.35;;;4.28;;
84311;SDS011;74490;52.148;7.940;2024-03-06T04:09:55;6.25;;;4.07;;
84311;SDS011;74490;52.148;7.940;2024-03-06T04:12:20;5.60;;;4.03;;
84311;SDS011;74490;52.148;7.940;2024-03-06T04:14:45;4.87;;;4.00;;
84311;SDS011;74490;52.148;7.940;2024-03-06T04:17:11;6.63;;;4.65;;
84311;SDS011;74490;52.148;7.940;2024-03-06T04:19:36;5.50;;;4.00;;
84311;SDS011;74490;52.148;7.940;2024-03-06T04:22:01;5.25;;;4.03;;
84311;SDS011;74490;52.148;7.940;2024-03-06T04:24:27;4.40;;;3.67;;
84311;SDS011;74490;52.148;7.940;2024-03-06T04:26:52;4.30;;;3.80;;
84311;SDS011;74490;52.148;7.940;2024-03-06T04:29:17;5.40;;;3.80;;
84311;SDS011;74490;52.148;7.940;2024-03-06T04:31:43;4.32;;;3.63;;
84311;SDS011;74490;52.148;7.940;2024-03-06T04:34:08;5.72;;;3.85;;
84311;SDS011;74490;52.148;7.940;2024-03-06T04:36:33;5.40;;;3.63;;
84311;SDS011;74490;52.148;7.940;2024-03-06T04:38:58;5.78;;;4.05;;
84311;SDS011;74490;52.148;7.940;2024-03-06T04:41:24;5.28;;;3.95;;
84311;SDS011;74490;52.148;7.940;2024-03-06T04:43:49;5.25;;;3.85;;
84311;SDS011;74490;52.148;7.940;2024-03-06T04:46:16;5.57;;;3.83;;
84311;SDS011;74490;52.148;7.940;2024-03-06T04:48:41;4.68;;;3.70;;
84311;SDS011;74490;52.148;7.940;2024-03-06T04:51:06;5.88;;;3.85;;
84311;SDS011;74490;52.148;7.940;2024-03-06T04:53:31;5.93;;;3.80;;
84311;SDS011;74490;52.148;7.940;2024-03-06T04:55:57;7.30;;;4.00;;
84311;SDS011;74490;52.148;7.940;2024-03-06T04:58:22;7.07;;;4.55;;
84311;SDS011;74490;52.148;7.940;2024-03-06T05:00:47;5.85;;;4.22;;
84311;SDS011;74490;52.148;7.940;2024-03-06T05:03:12;3.95;;;3.20;;
84311;SDS011;74490;52.148;7.940;2024-03-06T05:05:37;5.53;;;4.30;;
84311;SDS011;74490;52.148;7.940;2024-03-06T05:08:04;5.55;;;3.90;;
84311;SDS011;74490;52.148;7.940;2024-03-06T05:10:29;4.85;;;4.10;;
84311;SDS011;74490;52.148;7.940;2024-03-06T05:12:54;5.57;;;4.30;;
84311;SDS011;74490;52.148;7.940;2024-03-06T05:15:20;6.47;;;4.05;;
84311;SDS011;74490;52.148;7.940;2024-03-06T05:17:45;5.13;;;4.10;;
84311;SDS011;74490;52.148;7.940;2024-03-06T05:20:10;5.30;;;3.92;;
84311;SDS011;74490;52.148;7.940;2024-03-06T05:22:35;6.53;;;4.10;;
84311;SDS011;74490;52.148;7.940;2024-03-06T05:25:01;6.32;;;4.32;;
84311;SDS011;74490;52.148;7.940;2024-03-06T05:27:26;5.05;;;3.75;;
84311;SDS011;74490;52.148;7.940;2024-03-06T05:29:51;7.10;;;4.28;;
84311;SDS011;74490;52.148;7.940;2024-03-06T05:32:17;5.15;;;4.18;;
84311;SDS011;74490;52.148;7.940;2024-03-06T05:34:42;6.25;;;4.55;;
84311;SDS011;74490;52.148;7.940;2024-03-06T05:37:07;7.55;;;4.20;;
84311;SDS011;74490;52.148;7.940;2024-03-06T05:39:32;7.78;;;4.47;;
84311;SDS011;74490;52.148;7.940;2024-03-06T05:42:02;12.13;;;4.95;;
84311;SDS011;74490;52.148;7.940;2024-03-06T05:44:28;10.52;;;5.55;;
84311;SDS011;74490;52.148;7.940;2024-03-06T05:46:53;11.77;;;5.50;;
84311;SDS011;74490;52.148;7.940;2024-03-06T05:49:18;17.05;;;4.97;;
84311;SDS011;74490;52.148;7.940;2024-03-06T05:51:44;13.02;;;5.88;;
84311;SDS011;74490;52.148;7.940;2024-03-06T05:54:10;19.63;;;6.20;;
84311;SDS011;74490;52.148;7.940;2024-03-06T05:56:35;15.73;;;5.50;;
84311;SDS011;74490;52.148;7.940;2024-03-06T05:59:00;15.45;;;5.80;;
84311;SDS011;74490;52.148;7.940;2024-03-06T06:01:29;13.65;;;5.78;;
84311;SDS011;74490;52.148;7.940;2024-03-06T06:03:54;14.65;;;5.82;;
84311;SDS011;74490;52.148;7.940;2024-03-06T06:06:20;13.32;;;5.88;;
84311;SDS011;74490;52.148;7.940;2024-03-06T06:08:45;34.75;;;6.93;;
84311;SDS011;74490;52.148;7.940;2024-03-06T06:11:11;24.60;;;6.60;;
84311;SDS011;74490;52.148;7.940;2024-03-06T06:13:36;18.83;;;6.43;;
84311;SDS011;74490;52.148;7.940;2024-03-06T06:16:01;22.05;;;6.53;;
84311;SDS011;74490;52.148;7.940;2024-03-06T06:18:27;24.63;;;7.18;;
84311;SDS011;74490;52.148;7.940;2024-03-06T06:20:52;18.15;;;7.07;;
84311;SDS011;74490;52.148;7.940;2024-03-06T06:23:18;17.23;;;6.28;;
84311;SDS011;74490;52.148;7.940;2024-03-06T06:25:43;21.95;;;6.97;;
84311;SDS011;74490;52.148;7.940;2024-03-06T06:28:09;19.30;;;7.87;;
84311;SDS011;74490;52.148;7.940;2024-03-06T06:30:35;15.43;;;7.20;;
84311;SDS011;74490;52.148;7.940;2024-03-06T06:33:00;12.00;;;6.95;;
84311;SDS011;74490;52.148;7.940;2024-03-06T06:35:25;16.83;;;6.37;;
84311;SDS011;74490;52.148;7.940;2024-03-06T06:37:52;17.05;;;6.82;;
84311;SDS011;74490;52.148;7.940;2024-03-06T06:40:17;14.93;;;6.45;;
84311;SDS011;74490;52.148;7.940;2024-03-06T06:42:45;13.95;;;6.05;;
84311;SDS011;74490;52.148;7.940;2024-03-06T06:45:14;19.65;;;6.68;;
84311;SDS011;74490;52.148;7.940;2024-03-06T06:47:39;16.63;;;6.15;;
84311;SDS011;74490;52.148;7.940;2024-03-06T06:50:05;20.52;;;6.32;;
84311;SDS011;74490;52.148;7.940;2024-03-06T06:52:30;15.73;;;6.82;;
84311;SDS011;74490;52.148;7.940;2024-03-06T06:54:57;18.58;;;6.15;;
84311;SDS011;74490;52.148;7.940;2024-03-06T06:57:22;15.83;;;6.47;;
84311;SDS011;74490;52.148;7.940;2024-03-06T06:59:48;12.82;;;6.78;;
84311;SDS011;74490;52.148;7.940;2024-03-06T07:02:13;14.70;;;5.53;;
84311;SDS011;74490;52.148;7.940;2024-03-06T07:04:39;13.50;;;6.18;;
84311;SDS011;74490;52.148;7.940;2024-03-06T07:07:04;14.65;;;6.07;;
84311;SDS011;74490;52.148;7.940;2024-03-06T07:09:30;19.88;;;6.45;;
84311;SDS011;74490;52.148;7.940;2024-03-06T07:11:55;13.18;;;6.10;;
84311;SDS011;74490;52.148;7.940;2024-03-06T07:14:20;15.80;;;6.30;;
84311;SDS011;74490;52.148;7.940;2024-03-06T07:16:46;13.40;;;6.03;;
84311;SDS011;74490;52.148;7.940;2024-03-06T07:19:12;10.63;;;5.80;;
84311;SDS011;74490;52.148;7.940;2024-03-06T07:21:37;15.95;;;6.03;;
84311;SDS011;74490;52.148;7.940;2024-03-06T07:24:02;13.68;;;6.00;;
84311;SDS011;74490;52.148;7.940;2024-03-06T07:26:27;14.90;;;6.00;;
84311;SDS011;74490;52.148;7.940;2024-03-06T07:28:55;16.23;;;6.15;;
84311;SDS011;74490;52.148;7.940;2024-03-06T07:31:20;14.23;;;5.70;;
84311;SDS011;74490;52.148;7.940;2024-03-06T07:33:45;10.25;;;5.57;;
84311;SDS011;74490;52.148;7.940;2024-03-06T07:36:10;14.13;;;6.20;;
84311;SDS011;74490;52.148;7.940;2024-03-06T07:38:35;11.90;;;5.80;;
84311;SDS011;74490;52.148;7.940;2024-03-06T07:41:01;12.33;;;5.50;;
84311;SDS011;74490;52.148;7.940;2024-03-06T07:43:26;10.55;;;5.60;;
84311;SDS011;74490;52.148;7.940;2024-03-06T07:45:51;12.27;;;5.70;;
84311;SDS011;74490;52.148;7.940;2024-03-06T07:48:16;15.30;;;6.07;;
84311;SDS011;74490;52.148;7.940;2024-03-06T07:50:42;11.52;;;5.80;;
84311;SDS011;74490;52.148;7.940;2024-03-06T07:53:07;11.15;;;5.50;;
84311;SDS011;74490;52.148;7.940;2024-03-06T07:55:32;14.50;;;5.75;;
84311;SDS011;74490;52.148;7.940;2024-03-06T07:57:57;9.55;;;5.72;;
84311;SDS011;74490;52.148;7.940;2024-03-06T08:00:23;11.75;;;5.70;;
84311;SDS011;74490;52.148;7.940;2024-03-06T08:02:48;10.47;;;5.93;;
84311;SDS011;74490;52.148;7.940;2024-03-06T08:05:16;10.95;;;5.30;;
84311;SDS011;74490;52.148;7.940;2024-03-06T08:07:42;15.25;;;6.03;;
84311;SDS011;74490;52.148;7.940;2024-03-06T08:10:10;13.40;;;5.68;;
84311;SDS011;74490;52.148;7.940;2024-03-06T08:12:38;12.70;;;6.47;;
84311;SDS011;74490;52.148;7.940;2024-03-06T08:15:03;11.98;;;8.73;;
84311;SDS011;74490;52.148;7.940;2024-03-06T08:17:28;13.77;;;9.25;;
84311;SDS011;74490;52.148;7.940;2024-03-06T08:19:54;15.77;;;8.40;;
84311;SDS011;74490;52.148;7.940;2024-03-06T08:22:20;15.52;;;8.43;;
84311;SDS011;74490;52.148;7.940;2024-03-06T08:24:45;14.20;;;8.55;;
84311;SDS011;74490;52.148;7.940;2024-03-06T08:27:10;11.57;;;7.63;;
84311;SDS011;74490;52.148;7.940;2024-03-06T08:29:36;13.90;;;8.40;;
84311;SDS011;74490;52.148;7.940;2024-03-06T08:32:01;12.10;;;8.07;;
84311;SDS011;74490;52.148;7.940;2024-03-06T08:34:26;12.40;;;7.13;;
84311;SDS011;74490;52.148;7.940;2024-03-06T08:36:51;12.23;;;7.10;;
84311;SDS011;74490;52.148;7.940;2024-03-06T08:39:18;13.82;;;7.18;;
84311;SDS011;74490;52.148;7.940;2024-03-06T08:41:43;12.65;;;6.47;;
84311;SDS011;74490;52.148;7.940;2024-03-06T08:44:08;13.30;;;6.85;;
84311;SDS011;74490;52.148;7.940;2024-03-06T08:46:34;12.05;;;7.40;;
84311;SDS011;74490;52.148;7.940;2024-03-06T08:48:59;12.50;;;6.38;;
84311;SDS011;74490;52.148;7.940;2024-03-06T08:51:24;15.57;;;10.20;;
84311;SDS011;74490;52.148;7.940;2024-03-06T08:53:50;14.07;;;8.65;;
84311;SDS011;74490;52.148;7.940;2024-03-06T08:56:15;12.40;;;7.60;;
84311;SDS011;74490;52.148;7.940;2024-03-06T08:58:41;12.05;;;8.23;;
84311;SDS011;74490;52.148;7.940;2024-03-06T09:01:06;12.85;;;7.85;;
84311;SDS011;74490;52.148;7.940;2024-03-06T09:03:31;13.55;;;7.78;;
84311;SDS011;74490;52.148;7.940;2024-03-06T09:05:57;11.50;;;6.97;;
84311;SDS011;74490;52.148;7.940;2024-03-06T09:08:22;12.68;;;7.05;;
84311;SDS011;74490;52.148;7.940;2024-03-06T09:10:47;12.85;;;7.53;;
84311;SDS011;74490;52.148;7.940;2024-03-06T09:13:12;12.32;;;6.78;;
84311;SDS011;74490;52.148;7.940;2024-03-06T09:15:37;11.48;;;7.15;;
84311;SDS011;74490;52.148;7.940;2024-03-06T09:18:03;11.18;;;6.63;;
84311;SDS011;74490;52.148;7.940;2024-03-06T09:20:28;11.65;;;6.28;;
84311;SDS011;74490;52.148;7.940;2024-03-06T09:22:55;10.63;;;6.65;;
84311;SDS011;74490;52.148;7.940;2024-03-06T09:25:21;14.48;;;6.47;;
84311;SDS011;74490;52.148;7.940;2024-03-06T09:27:47;9.38;;;6.35;;
84311;SDS011;74490;52.148;7.940;2024-03-06T09:30:13;12.90;;;7.60;;
84311;SDS011;74490;52.148;7.940;2024-03-06T09:32:38;10.95;;;8.02;;
84311;SDS011;74490;52.148;7.940;2024-03-06T09:35:06;15.25;;;9.50;;
84311;SDS011;74490;52.148;7.940;2024-03-06T09:37:31;13.80;;;9.27;;
84311;SDS011;74490;52.148;7.940;2024-03-06T09:39:56;15.63;;;8.68;;
84311;SDS011;74490;52.148;7.940;2024-03-06T09:42:22;13.32;;;9.73;;
84311;SDS011;74490;52.148;7.940;2024-03-06T09:44:48;16.27;;;9.63;;
84311;SDS011;74490;52.148;7.940;2024-03-06T09:47:13;14.88;;;9.65;;
84311;SDS011;74490;52.148;7.940;2024-03-06T09:49:41;13.10;;;8.88;;
84311;SDS011;74490;52.148;7.940;2024-03-06T09:52:07;12.18;;;8.68;;
84311;SDS011;74490;52.148;7.940;2024-03-06T09:54:33;17.08;;;9.82;;
84311;SDS011;74490;52.148;7.940;2024-03-06T09:56:58;14.30;;;9.68;;
84311;SDS011;74490;52.148;7.940;2024-03-06T09:59:24;19.15;;;10.38;;
84311;SDS011;74490;52.148;7.940;2024-03-06T10:01:56;16.25;;;10.80;;
84311;SDS011;74490;52.148;7.940;2024-03-06T10:06:47;15.52;;;9.00;;
84311;SDS011;74490;52.148;7.940;2024-03-06T10:09:16;12.98;;;9.57;;
84311;SDS011;74490;52.148;7.940;2024-03-06T10:11:41;17.05;;;10.40;;
84311;SDS011;74490;52.148;7.940;2024-03-06T10:14:07;15.02;;;10.98;;
84311;SDS011;74490;52.148;7.940;2024-03-06T10:16:32;16.45;;;12.20;;
84311;SDS011;74490;52.148;7.940;2024-03-06T10:19:02;16.95;;;11.60;;
84311;SDS011;74490;52.148;7.940;2024-03-06T10:21:40;17.75;;;11.40;;
84311;SDS011;74490;52.148;7.940;2024-03-06T10:24:05;14.77;;;10.57;;
84311;SDS011;74490;52.148;7.940;2024-03-06T10:26:31;16.67;;;11.00;;
84311;SDS011;74490;52.148;7.940;2024-03-06T10:28:56;16.20;;;11.32;;
84311;SDS011;74490;52.148;7.940;2024-03-06T10:31:27;20.60;;;11.67;;
84311;SDS011;74490;52.148;7.940;2024-03-06T10:36:21;18.42;;;11.55;;
84311;SDS011;74490;52.148;7.940;2024-03-06T10:38:46;22.65;;;13.02;;
84311;SDS011;74490;52.148;7.940;2024-03-06T10:41:14;20.63;;;13.43;;
84311;SDS011;74490;52.148;7.940;2024-03-06T10:43:39;26.58;;;15.45;;
84311;SDS011;74490;52.148;7.940;2024-03-06T10:46:06;17.98;;;14.07;;
84311;SDS011;74490;52.148;7.940;2024-03-06T10:48:31;21.98;;;15.23;;
84311;SDS011;74490;52.148;7.940;2024-03-06T10:50:57;19.15;;;13.70;;
84311;SDS011;74490;52.148;7.940;2024-03-06T10:53:22;19.48;;;13.68;;
84311;SDS011;74490;52.148;7.940;2024-03-06T10:55:48;20.27;;;12.95;;
84311;SDS011;74490;52.148;7.940;2024-03-06T10:58:13;19.85;;;13.38;;
84311;SDS011;74490;52.148;7.940;2024-03-06T11:00:40;16.88;;;12.05;;
84311;SDS011;74490;52.148;7.940;2024-03-06T11:03:05;17.25;;;11.35;;
84311;SDS011;74490;52.148;7.940;2024-03-06T11:05:34;14.80;;;11.25;;
84311;SDS011;74490;52.148;7.940;2024-03-06T11:07:59;15.02;;;10.60;;
84311;SDS011;74490;52.148;7.940;2024-03-06T11:10:31;15.00;;;10.07;;
84311;SDS011;74490;52.148;7.940;2024-03-06T11:12:56;13.52;;;9.93;;
84311;SDS011;74490;52.148;7.940;2024-03-06T11:15:22;14.30;;;9.93;;
84311;SDS011;74490;52.148;7.940;2024-03-06T11:17:47;13.65;;;9.13;;
84311;SDS011;74490;52.148;7.940;2024-03-06T11:20:17;17.38;;;10.20;;
84311;SDS011;74490;52.148;7.940;2024-03-06T11:28:07;14.77;;;9.02;;
84311;SDS011;74490;52.148;7.940;2024-03-06T11:30:34;13.68;;;9.18;;
84311;SDS011;74490;52.148;7.940;2024-03-06T11:33:12;13.68;;;8.27;;
84311;SDS011;74490;52.148;7.940;2024-03-06T11:35:37;15.10;;;8.63;;
84311;SDS011;74490;52.148;7.940;2024-03-06T11:38:04;12.95;;;8.20;;
84311;SDS011;74490;52.148;7.940;2024-03-06T11:40:31;12.52;;;8.32;;
84311;SDS011;74490;52.148;7.940;2024-03-06T11:42:56;18.10;;;8.48;;
84311;SDS011;74490;52.148;7.940;2024-03-06T11:45:21;17.50;;;8.45;;
84311;SDS011;74490;52.148;7.940;2024-03-06T11:47:59;11.82;;;7.38;;
84311;SDS011;74490;52.148;7.940;2024-03-06T11:50:25;14.35;;;7.82;;
84311;SDS011;74490;52.148;7.940;2024-03-06T11:52:51;11.18;;;7.78;;
84311;SDS011;74490;52.148;7.940;2024-03-06T11:55:16;11.00;;;7.70;;
84311;SDS011;74490;52.148;7.940;2024-03-06T11:57:41;11.50;;;7.68;;
84311;SDS011;74490;52.148;7.940;2024-03-06T12:00:07;10.55;;;7.75;;
84311;SDS011;74490;52.148;7.940;2024-03-06T12:02:33;11.65;;;7.60;;
84311;SDS011;74490;52.148;7.940;2024-03-06T12:05:01;10.88;;;7.28;;
84311;SDS011;74490;52.148;7.940;2024-03-06T12:07:27;10.38;;;7.40;;
84311;SDS011;74490;52.148;7.940;2024-03-06T12:09:52;10.95;;;6.95;;
84311;SDS011;74490;52.148;7.940;2024-03-06T12:12:18;11.98;;;7.47;;
84311;SDS011;74490;52.148;7.940;2024-03-06T12:14:43;13.18;;;7.07;;
84311;SDS011;74490;52.148;7.940;2024-03-06T12:17:12;9.65;;;6.88;;
84311;SDS011;74490;52.148;7.940;2024-03-06T12:19:39;11.93;;;7.07;;
84311;SDS011;74490;52.148;7.940;2024-03-06T12:22:07;9.15;;;6.43;;
84311;SDS011;74490;52.148;7.940;2024-03-06T12:24:33;12.68;;;7.63;;
84311;SDS011;74490;52.148;7.940;2024-03-06T12:27:02;8.45;;;6.32;;
84311;SDS011;74490;52.148;7.940;2024-03-06T12:29:28;9.18;;;6.32;;
84311;SDS011;74490;52.148;7.940;2024-03-06T12:31:55;8.73;;;6.35;;
84311;SDS011;74490;52.148;7.940;2024-03-06T12:34:22;11.25;;;6.63;;
84311;SDS011;74490;52.148;7.940;2024-03-06T12:36:47;9.30;;;6.30;;
84311;SDS011;74490;52.148;7.940;2024-03-06T12:39:14;8.05;;;5.85;;
84311;SDS011;74490;52.148;7.940;2024-03-06T12:41:42;10.27;;;6.63;;
84311;SDS011;74490;52.148;7.940;2024-03-06T12:44:07;8.43;;;6.30;;
84311;SDS011;74490;52.148;7.940;2024-03-06T12:46:33;10.30;;;6.72;;
84311;SDS011;74490;52.148;7.940;2024-03-06T12:48:58;8.90;;;6.10;;
84311;SDS011;74490;52.148;7.940;2024-03-06T12:51:23;8.75;;;6.20;;
84311;SDS011;74490;52.148;7.940;2024-03-06T12:53:48;9.57;;;6.85;;
84311;SDS011;74490;52.148;7.940;2024-03-06T12:56:14;8.60;;;6.35;;
84311;SDS011;74490;52.148;7.940;2024-03-06T12:58:39;8.38;;;6.25;;
84311;SDS011;74490;52.148;7.940;2024-03-06T13:01:04;10.25;;;5.97;;
84311;SDS011;74490;52.148;7.940;2024-03-06T13:03:30;9.43;;;6.15;;
84311;SDS011;74490;52.148;7.940;2024-03-06T13:05:55;7.47;;;5.53;;
84311;SDS011;74490;52.148;7.940;2024-03-06T13:08:21;9.68;;;6.22;;
84311;SDS011;74490;52.148;7.940;2024-03-06T13:10:46;9.00;;;6.25;;
84311;SDS011;74490;52.148;7.940;2024-03-06T13:13:11;8.68;;;5.88;;
84311;SDS011;74490;52.148;7.940;2024-03-06T13:15:37;9.23;;;6.38;;
84311;SDS011;74490;52.148;7.940;2024-03-06T13:18:02;8.68;;;6.10;;
84311;SDS011;74490;52.148;7.940;2024-03-06T13:20:30;8.80;;;5.45;;
84311;SDS011;74490;52.148;7.940;2024-03-06T13:22:55;9.27;;;6.70;;
84311;SDS011;74490;52.148;7.940;2024-03-06T13:25:21;9.60;;;6.70;;
84311;SDS011;74490;52.148;7.940;2024-03-06T13:27:46;9.60;;;6.45;;
84311;SDS011;74490;52.148;7.940;2024-03-06T13:30:12;10.48;;;6.07;;
84311;SDS011;74490;52.148;7.940;2024-03-06T13:32:37;9.20;;;5.97;;
84311;SDS011;74490;52.148;7.940;2024-03-06T13:35:02;8.50;;;6.15;;
84311;SDS011;74490;52.148;7.940;2024-03-06T13:37:28;9.05;;;6.20;;
84311;SDS011;74490;52.148;7.940;2024-03-06T13:39:53;8.98;;;5.95;;
84311;SDS011;74490;52.148;7.940;2024-03-06T13:42:23;10.55;;;6.55;;
84311;SDS011;74490;52.148;7.940;2024-03-06T13:44:48;10.57;;;6.43;;
84311;SDS011;74490;52.148;7.940;2024-03-06T13:47:14;9.40;;;6.15;;
84311;SDS011;74490;52.148;7.940;2024-03-06T13:49:41;10.55;;;6.32;;
84311;SDS011;74490;52.148;7.940;2024-03-06T13:52:07;8.48;;;6.25;;
84311;SDS011;74490;52.148;7.940;2024-03-06T13:54:35;7.78;;;5.40;;
84311;SDS011;74490;52.148;7.940;2024-03-06T13:57:00;9.13;;;6.18;;
84311;SDS011;74490;52.148;7.940;2024-03-06T13:59:30;8.65;;;5.85;;
84311;SDS011;74490;52.148;7.940;2024-03-06T14:01:55;8.77;;;6.38;;
84311;SDS011;74490;52.148;7.940;2024-03-06T14:04:20;9.75;;;6.53;;
84311;SDS011;74490;52.148;7.940;2024-03-06T14:06:46;8.35;;;5.93;;
84311;SDS011;74490;52.148;7.940;2024-03-06T14:09:11;7.25;;;5.75;;
84311;SDS011;74490;52.148;7.940;2024-03-06T14:11:38;8.38;;;5.53;;
84311;SDS011;74490;52.148;7.940;2024-03-06T14:14:03;10.02;;;6.72;;
84311;SDS011;74490;52.148;7.940;2024-03-06T14:16:29;8.77;;;5.78;;
84311;SDS011;74490;52.148;7.940;2024-03-06T14:18:55;7.80;;;5.80;;
84311;SDS011;74490;52.148;7.940;2024-03-06T14:21:20;9.90;;;5.88;;
84311;SDS011;74490;52.148;7.940;2024-03-06T14:23:46;8.52;;;6.15;;
84311;SDS011;74490;52.148;7.940;2024-03-06T14:26:11;8.53;;;6.10;;
84311;SDS011;74490;52.148;7.940;2024-03-06T14:28:36;8.18;;;5.55;;
84311;SDS011;74490;52.148;7.940;2024-03-06T14:31:03;8.00;;;6.38;;
84311;SDS011;74490;52.148;7.940;2024-03-06T14:33:28;9.00;;;6.05;;
84311;SDS011;74490;52.148;7.940;2024-03-06T14:35:53;7.97;;;6.05;;
84311;SDS011;74490;52.148;7.940;2024-03-06T14:38:18;10.90;;;6.35;;
84311;SDS011;74490;52.148;7.940;2024-03-06T14:40:44;7.90;;;6.30;;
84311;SDS011;74490;52.148;7.940;2024-03-06T14:43:09;8.52;;;5.68;;